Hovedside
METAR-TAF:

METAR-TAF

Lufthavner :

Esbjerg lufthavn

Esbjerg, Danmark

breddegrad: 55-32N, lengdegrad: 008-34E, høyde over havet: 30 m

Gjeldene værobservasjon

Denne rapporten ble laget for 27 minutter siden, klokken 18:20 UTC
Vind 11 kt fra Nord-nordøst
Temperatur 4°C
Luftfuktighet 93%
Trykk 1029 hPa
Sikt 10 km eller mer
lette regnbyger

METAR: EKEB 191820Z AUTO 03011KT 9999NDV -SHRA BKN029/// 04/03 Q1029

Tid: 19:47 (18:47 UTC)

Varsel

Denne rapporten ble laget for 1 time og 40 minutter siden, klokken 17:07 UTC
Varsel gyldig fra 19. klokken 18 UTC til 19. klokken 23 UTC
Vind 12 kt fra Øst
Sikt 10 km eller mer
Brutte skyer i en høyde av 2000 ft

TAF: EKEB 191707Z 1918/1923 08012KT 9999 BKN020

Værobservasjoner og værvarsel for over 4000 flyplasser (METAR- og TAF-rapporter).

Tilgjengelige stasjoner er representert av de røde og gule prikkene på kartet.

Hold musepekeren over prikken for å se navnet på stasjonen.

Klikk så for å se værobservasjoner og -varsler.

For å forandre kartet kan du klikke på den grønne knappen med svart kryss for å zoome inn, på den grønne knappen med strek for å zoome ut, eller på de grønne pilene for å se tilstøtende kart.


METAR-TAF: